Time;durP1;ratioP1;P1;durP2;ratioP2;P2;SDS_P1;SDS_P2;PMS_P1;PMS_P2;Temp;Humidity;BMP_temperature;BMP_pressure;BME280_temperature;BME280_humidity;BME280_pressure;Samples;Min_cycle;Max_cycle;Signal;HPM_P1;HPM_P2
2023/10/21 00:01:00;;;;;;;0.20;0.20;;;;;;;9.58;100.00;98214.13;5115049;28;20470;-56
2023/10/21 00:03:25;;;;;;;0.20;0.20;;;;;;;9.65;100.00;98217.47;5113896;28;20055;-56
2023/10/21 00:05:51;;;;;;;0.20;0.20;;;;;;;9.46;100.00;98215.06;5115200;28;20016;-56
2023/10/21 00:08:16;;;;;;;0.20;0.20;;;;;;;9.43;100.00;98219.38;5114729;28;20046;-56
2023/10/21 00:10:42;;;;;;;0.20;0.20;;;;;;;9.38;100.00;98216.84;5114126;28;20475;-56
2023/10/21 00:13:07;;;;;;;0.20;0.20;;;;;;;9.40;100.00;98220.25;5114923;28;20027;-57
2023/10/21 00:15:34;;;;;;;0.20;0.20;;;;;;;9.44;100.00;98221.06;5113746;28;20102;-56
2023/10/21 00:17:59;;;;;;;0.20;0.20;;;;;;;9.41;100.00;98227.09;5114955;28;20020;-57
2023/10/21 00:20:25;;;;;;;0.20;0.20;;;;;;;9.52;100.00;98233.00;5114421;28;20023;-57
2023/10/21 00:22:50;;;;;;;0.20;0.20;;;;;;;9.55;100.00;98233.00;5113786;28;20028;-56
2023/10/21 00:25:15;;;;;;;0.20;0.20;;;;;;;9.54;100.00;98239.00;5114326;28;20020;-57
2023/10/21 00:27:40;;;;;;;0.20;0.20;;;;;;;9.68;100.00;98240.59;5114516;28;20020;-56
2023/10/21 00:30:06;;;;;;;0.20;0.20;;;;;;;9.74;100.00;98245.69;5113711;28;20320;-56
2023/10/21 00:32:31;;;;;;;0.20;0.20;;;;;;;9.81;100.00;98251.63;5114126;28;20076;-56
2023/10/21 00:34:57;;;;;;;0.20;0.20;;;;;;;9.78;100.00;98259.38;5114434;28;20019;-56
2023/10/21 00:37:22;;;;;;;0.20;0.20;;;;;;;9.80;100.00;98260.19;5113233;28;20104;-57
2023/10/21 00:39:47;;;;;;;0.20;0.20;;;;;;;9.79;100.00;98259.34;5114187;28;20050;-56
2023/10/21 00:42:13;;;;;;;0.20;0.20;;;;;;;9.78;100.00;98270.50;5113990;28;20031;-57
2023/10/21 00:44:38;;;;;;;0.20;0.20;;;;;;;9.82;100.00;98271.34;5113446;28;20032;-56
2023/10/21 00:47:03;;;;;;;0.22;0.22;;;;;;;9.89;100.00;98276.41;5114047;28;20035;-57
2023/10/21 00:49:31;;;;;;;0.20;0.20;;;;;;;9.92;100.00;98290.13;5113233;28;20530;-56
2023/10/21 00:51:57;;;;;;;0.20;0.20;;;;;;;9.88;100.00;98290.13;5113404;28;20104;-56
2023/10/21 00:54:25;;;;;;;0.20;0.20;;;;;;;9.89;100.00;98289.28;5113730;28;20057;-57
2023/10/21 00:56:51;;;;;;;0.20;0.20;;;;;;;9.88;100.00;98289.28;5113939;28;20051;-56
2023/10/21 00:59:17;;;;;;;0.20;0.20;;;;;;;9.87;100.00;98298.72;5112856;28;20039;-57
2023/10/21 01:01:43;;;;;;;0.20;0.20;;;;;;;9.84;100.00;98293.59;5113751;28;20467;-56
2023/10/21 01:04:10;;;;;;;0.20;0.20;;;;;;;9.82;100.00;98300.47;5113950;28;20039;-56
2023/10/21 01:06:36;;;;;;;0.10;0.10;;;;;;;9.84;100.00;98311.63;5113259;28;20032;-57
2023/10/21 01:09:01;;;;;;;0.20;0.20;;;;;;;9.87;100.00;98305.59;5114015;28;20022;-56
2023/10/21 01:11:26;;;;;;;0.20;0.20;;;;;;;9.88;100.00;98309.88;5113418;28;20080;-57
2023/10/21 01:13:54;;;;;;;0.20;0.20;;;;;;;9.84;100.00;98311.63;5112811;28;20471;-56
2023/10/21 01:16:19;;;;;;;0.20;0.20;;;;;;;9.83;100.00;98312.47;5113555;28;20145;-57
2023/10/21 01:18:44;;;;;;;0.20;0.20;;;;;;;9.82;100.00;98309.91;5113026;28;20024;-56
2023/10/21 01:21:10;;;;;;;0.20;0.20;;;;;;;9.86;100.00;98317.63;5113322;28;20040;-57
2023/10/21 01:23:36;;;;;;;0.20;0.20;;;;;;;9.89;100.00;98316.72;5113688;28;20027;-57
2023/10/21 01:26:02;;;;;;;0.20;0.20;;;;;;;9.91;100.00;98309.00;5112816;28;20027;-56
2023/10/21 01:28:29;;;;;;;0.20;0.20;;;;;;;9.90;100.00;98315.84;5113123;28;20059;-56
2023/10/21 01:30:55;;;;;;;0.20;0.20;;;;;;;9.97;100.00;98324.38;5113662;28;20016;-57
2023/10/21 01:33:20;;;;;;;0.28;0.28;;;;;;;9.98;100.00;98324.38;5112592;28;20032;-56
2023/10/21 01:35:46;;;;;;;0.20;0.20;;;;;;;10.01;100.00;98332.06;5113578;28;20043;-57
2023/10/21 01:38:11;;;;;;;0.30;0.30;;;;;;;10.06;100.00;98339.75;5113181;28;20024;-57
2023/10/21 01:40:37;;;;;;;0.20;0.20;;;;;;;10.13;100.00;98341.38;5112245;28;20132;-57
2023/10/21 01:43:02;;;;;;;0.28;0.28;;;;;;;10.16;100.00;98343.94;5113331;28;20023;-57
2023/10/21 01:45:28;;;;;;;0.20;0.20;;;;;;;10.20;100.00;98339.63;5112896;28;20030;-56
2023/10/21 01:47:53;;;;;;;0.20;0.20;;;;;;;10.25;100.00;98339.56;5112714;28;20034;-57
2023/10/21 01:50:19;;;;;;;0.25;0.25;;;;;;;10.29;100.00;98341.22;5113181;28;20039;-57
2023/10/21 01:52:44;;;;;;;0.20;0.20;;;;;;;10.32;100.00;98336.06;5113249;28;20031;-57
2023/10/21 01:55:10;;;;;;;0.30;0.30;;;;;;;10.32;100.00;98341.22;5112580;28;20046;-57
2023/10/21 01:57:35;;;;;;;0.30;0.30;;;;;;;10.35;100.00;98341.19;5113091;28;20453;-57
2023/10/21 02:00:08;;;;;;;0.10;0.10;;;;;;;10.37;100.00;98348.06;5113360;28;20523;-56
2023/10/21 02:02:34;;;;;;;0.20;0.20;;;;;;;10.39;100.00;98355.75;5114497;28;20085;-57
2023/10/21 02:04:59;;;;;;;0.20;0.20;;;;;;;10.40;100.00;98357.47;5117524;28;20035;-56
2023/10/21 02:07:25;;;;;;;0.20;0.20;;;;;;;10.44;100.00;98356.56;5116924;28;20026;-56
2023/10/21 02:09:50;;;;;;;0.20;0.20;;;;;;;10.44;100.00;98355.72;5116463;28;20542;-56
2023/10/21 02:12:15;;;;;;;0.20;0.20;;;;;;;10.44;100.00;98366.88;5116815;28;20031;-56
2023/10/21 02:14:41;;;;;;;0.20;0.20;;;;;;;10.44;100.00;98366.88;5117327;28;20012;-56
2023/10/21 02:17:06;;;;;;;0.20;0.20;;;;;;;10.45;100.00;98363.44;5116355;28;20416;-56
2023/10/21 02:19:32;;;;;;;0.20;0.20;;;;;;;10.47;100.00;98364.28;5116779;28;20475;-56
2023/10/21 02:21:58;;;;;;;0.20;0.20;;;;;;;10.47;100.00;98371.13;5117003;28;20486;-57
2023/10/21 02:24:23;;;;;;;0.20;0.20;;;;;;;10.46;100.00;98380.59;5116282;28;20032;-57
2023/10/21 02:26:49;;;;;;;0.20;0.20;;;;;;;10.47;100.00;98376.28;5116986;28;20027;-57
2023/10/21 02:29:15;;;;;;;0.20;0.20;;;;;;;10.47;100.00;98387.44;5116029;28;20024;-57
2023/10/21 02:31:40;;;;;;;0.30;0.30;;;;;;;10.47;100.00;98384.88;5116734;28;20036;-57
2023/10/21 02:34:05;;;;;;;0.20;0.20;;;;;;;10.44;100.00;98389.19;5116833;28;20024;-56
2023/10/21 02:36:31;;;;;;;0.20;0.20;;;;;;;10.47;100.00;98399.47;5115632;28;20028;-56
2023/10/21 02:38:56;;;;;;;0.20;0.20;;;;;;;10.47;100.00;98392.59;5116841;28;20032;-57
2023/10/21 02:41:21;;;;;;;0.20;0.20;;;;;;;10.50;100.00;98402.88;5116046;28;20445;-57
2023/10/21 02:43:47;;;;;;;0.20;0.20;;;;;;;10.53;100.00;98397.69;5116030;28;20016;-56
2023/10/21 02:46:13;;;;;;;0.20;0.20;;;;;;;10.53;100.00;98397.69;5116465;28;20022;-57
2023/10/21 02:48:39;;;;;;;0.30;0.30;;;;;;;10.48;100.00;98404.63;5116337;28;20431;-56
2023/10/21 02:51:15;;;;;;;0.20;0.20;;;;;;;10.52;100.00;98406.28;5115647;28;20486;-57
2023/10/21 02:53:42;;;;;;;0.20;0.20;;;;;;;10.50;100.00;98404.59;5116447;28;20046;-56
2023/10/21 02:56:08;;;;;;;0.20;0.20;;;;;;;10.49;100.00;98406.31;5116292;28;20023;-57
2023/10/21 02:58:34;;;;;;;0.20;0.20;;;;;;;10.49;100.00;98421.75;5115474;28;20046;-57
2023/10/21 03:01:04;;;;;;;0.20;0.20;;;;;;;10.50;100.00;98418.31;5116273;28;20479;-56
2023/10/21 03:03:29;;;;;;;0.20;0.20;;;;;;;10.49;100.00;98416.59;5116057;28;20027;-56
2023/10/21 03:05:55;;;;;;;0.20;0.20;;;;;;;10.46;100.00;98424.38;5115422;28;20031;-57
2023/10/21 03:08:20;;;;;;;0.20;0.20;;;;;;;10.49;100.00;98428.63;5115771;28;20019;-57
2023/10/21 03:10:45;;;;;;;0.30;0.30;;;;;;;10.47;100.00;98422.63;5116106;28;20530;-57
2023/10/21 03:13:11;;;;;;;0.20;0.20;;;;;;;10.49;100.00;98437.19;5114379;28;20020;-57
2023/10/21 03:15:36;;;;;;;0.10;0.10;;;;;;;10.50;100.00;98431.19;5115889;28;20032;-57
2023/10/21 03:18:01;;;;;;;0.20;0.20;;;;;;;10.48;100.00;98440.66;5116019;28;20111;-56
2023/10/21 03:20:31;;;;;;;0.20;0.20;;;;;;;10.50;100.00;98444.06;5114742;28;20088;-57
2023/10/21 03:22:56;;;;;;;0.20;0.20;;;;;;;10.48;100.00;98440.66;5115915;28;20021;-57
2023/10/21 03:25:22;;;;;;;0.20;0.20;;;;;;;10.45;100.00;98438.09;5114602;28;20532;-57
2023/10/21 03:27:47;;;;;;;0.20;0.20;;;;;;;10.43;100.00;98437.28;5115638;28;20034;-57
2023/10/21 03:30:13;;;;;;;0.20;0.20;;;;;;;10.47;100.00;98445.81;5115582;28;20043;-57
2023/10/21 03:32:38;;;;;;;0.20;0.20;;;;;;;10.44;100.00;98453.56;5112268;28;20031;-56
2023/10/21 03:35:04;;;;;;;0.20;0.20;;;;;;;10.43;100.00;98446.72;5095255;28;20533;-56
2023/10/21 03:37:29;;;;;;;0.20;0.20;;;;;;;10.42;100.00;98461.31;5094850;28;20042;-57
2023/10/21 03:39:55;;;;;;;0.20;0.20;;;;;;;10.38;100.00;98465.63;5094121;28;20040;-56
2023/10/21 03:42:21;;;;;;;0.20;0.20;;;;;;;10.39;100.00;98479.34;5094863;28;20024;-57
2023/10/21 03:44:46;;;;;;;0.22;0.22;;;;;;;10.42;100.00;98469.03;5095149;28;20567;-57
2023/10/21 03:47:11;;;;;;;0.20;0.20;;;;;;;10.41;100.00;98475.06;5094061;28;20041;-57
2023/10/21 03:49:36;;;;;;;0.20;0.20;;;;;;;10.41;100.00;98480.19;5094982;28;20032;-57
2023/10/21 03:52:03;;;;;;;0.20;0.20;;;;;;;10.45;100.00;98484.47;5094837;28;20020;-57
2023/10/21 03:54:28;;;;;;;0.20;0.20;;;;;;;10.50;100.00;98484.44;5093734;28;20115;-57
2023/10/21 03:56:53;;;;;;;0.20;0.20;;;;;;;10.52;100.00;98493.84;5094982;28;20095;-57
2023/10/21 03:59:19;;;;;;;0.20;0.20;;;;;;;10.51;100.00;98492.13;5094555;28;20032;-57
2023/10/21 04:01:45;;;;;;;0.20;0.20;;;;;;;10.51;100.00;98491.28;5094069;28;20028;-57
2023/10/21 04:04:10;;;;;;;0.20;0.20;;;;;;;10.56;100.00;98492.13;5094242;28;20028;-56
2023/10/21 04:06:36;;;;;;;0.20;0.20;;;;;;;10.62;100.00;98498.91;5094575;28;20430;-57
2023/10/21 04:09:01;;;;;;;0.20;0.20;;;;;;;10.60;100.00;98508.38;5093818;28;20036;-57
2023/10/21 04:11:26;;;;;;;0.22;0.22;;;;;;;10.64;100.00;98508.34;5094345;28;20052;-57
2023/10/21 04:13:51;;;;;;;0.20;0.20;;;;;;;10.68;100.00;98514.34;5094326;28;20027;-56
2023/10/21 04:16:17;;;;;;;0.17;0.17;;;;;;;10.70;100.00;98517.72;5093384;28;20028;-57
2023/10/21 04:18:42;;;;;;;0.20;0.20;;;;;;;10.67;100.00;98522.91;5094247;28;20024;-57
2023/10/21 04:21:07;;;;;;;0.20;0.20;;;;;;;10.66;100.00;98528.94;5094228;28;20042;-56
2023/10/21 04:23:33;;;;;;;0.20;0.20;;;;;;;10.71;100.00;98529.75;5093082;28;20023;-57
2023/10/21 04:25:58;;;;;;;0.20;0.20;;;;;;;10.72;100.00;98536.63;5093611;28;20531;-56
2023/10/21 04:28:23;;;;;;;0.20;0.20;;;;;;;10.79;100.00;98537.41;5093848;28;20036;-57
2023/10/21 04:30:48;;;;;;;0.20;0.20;;;;;;;10.78;100.00;98541.72;5093520;28;20032;-57
2023/10/21 04:33:14;;;;;;;0.20;0.20;;;;;;;10.83;100.00;98544.25;5093792;28;20032;-57
2023/10/21 04:35:40;;;;;;;0.20;0.20;;;;;;;10.84;100.00;98549.38;5093122;28;20456;-56
2023/10/21 04:38:07;;;;;;;0.20;0.20;;;;;;;10.86;100.00;98551.97;5093880;28;20103;-56
2023/10/21 04:40:33;;;;;;;0.20;0.20;;;;;;;10.85;100.00;98551.09;5093546;28;20040;-57
2023/10/21 04:42:58;;;;;;;0.20;0.20;;;;;;;10.84;100.00;98557.09;5093263;28;20020;-57
2023/10/21 04:45:23;;;;;;;0.30;0.30;;;;;;;10.87;100.00;98563.97;5093804;28;20414;-57
2023/10/21 04:47:50;;;;;;;0.30;0.30;;;;;;;10.85;100.00;98563.97;5093887;28;20024;-57
2023/10/21 04:50:16;;;;;;;0.20;0.20;;;;;;;10.86;100.00;98567.44;5092674;28;20387;-57
2023/10/21 04:52:43;;;;;;;0.20;0.20;;;;;;;10.84;100.00;98571.72;5093709;28;20472;-57
2023/10/21 04:55:08;;;;;;;0.20;0.20;;;;;;;10.79;100.00;98581.22;5093873;28;20030;-57
2023/10/21 04:57:34;;;;;;;0.20;0.20;;;;;;;10.82;100.00;98581.19;5092705;28;20517;-56
2023/10/21 04:59:59;;;;;;;0.20;0.20;;;;;;;10.79;100.00;98584.63;5093692;28;20512;-56
2023/10/21 05:02:24;;;;;;;0.20;0.20;;;;;;;10.80;100.00;98585.50;5093415;28;20040;-57
2023/10/21 05:04:50;;;;;;;0.20;0.20;;;;;;;10.81;100.00;98585.50;5092823;28;20027;-57
2023/10/21 05:07:16;;;;;;;0.20;0.20;;;;;;;10.78;100.00;98588.09;5093297;28;20036;-57
2023/10/21 05:09:41;;;;;;;0.20;0.20;;;;;;;10.77;100.00;98594.13;5093601;28;20568;-57
2023/10/21 05:12:06;;;;;;;0.20;0.20;;;;;;;10.75;100.00;98597.56;5092820;28;20123;-57
2023/10/21 05:14:32;;;;;;;0.20;0.20;;;;;;;10.74;100.00;98606.16;5093482;28;20020;-57
2023/10/21 05:16:57;;;;;;;0.20;0.20;;;;;;;10.69;100.00;98608.75;5093425;28;20518;-57
2023/10/21 05:19:23;;;;;;;0.20;0.20;;;;;;;10.64;100.00;98611.38;5092274;28;20016;-57
2023/10/21 05:21:48;;;;;;;0.32;0.20;;;;;;;10.59;100.00;98612.25;5093276;28;20036;-56
2023/10/21 05:24:13;;;;;;;0.20;0.20;;;;;;;10.49;100.00;98617.47;5093337;28;20039;-57
2023/10/21 05:26:38;;;;;;;0.20;0.20;;;;;;;10.54;100.00;98620.88;5092401;28;20047;-57
2023/10/21 05:29:04;;;;;;;0.20;0.20;;;;;;;10.48;100.00;98623.53;5093227;28;20494;-57
2023/10/21 05:31:29;;;;;;;0.20;0.20;;;;;;;10.35;100.00;98624.41;5092912;28;20108;-56
2023/10/21 05:33:57;;;;;;;0.20;0.20;;;;;;;10.41;100.00;98628.72;5092206;28;20395;-56
2023/10/21 05:36:26;;;;;;;0.20;0.20;;;;;;;10.47;100.00;98638.94;5092648;28;20146;-56
2023/10/21 05:38:51;;;;;;;0.20;0.20;;;;;;;10.49;100.00;98638.09;5093250;28;20020;-57
2023/10/21 05:41:16;;;;;;;0.20;0.20;;;;;;;10.54;100.00;98643.22;5091733;28;20775;-57
2023/10/21 05:43:41;;;;;;;0.20;0.20;;;;;;;10.53;100.00;98634.66;5093066;28;20437;-57
2023/10/21 05:46:07;;;;;;;0.20;0.20;;;;;;;10.54;100.00;98628.59;5092330;28;20016;-57
2023/10/21 05:48:32;;;;;;;0.20;0.20;;;;;;;10.54;100.00;98643.22;5092643;28;20120;-56
2023/10/21 05:51:01;;;;;;;0.20;0.20;;;;;;;10.60;100.00;98655.19;5092807;28;20035;-57
2023/10/21 05:53:27;;;;;;;0.10;0.10;;;;;;;10.65;100.00;98658.59;5092097;28;20021;-57
2023/10/21 05:55:55;;;;;;;0.22;0.22;;;;;;;10.69;100.00;98666.31;5093010;28;20085;-57
2023/10/21 05:58:20;;;;;;;0.30;0.30;;;;;;;10.75;100.00;98670.56;5092529;28;20035;-56
2023/10/21 06:00:45;;;;;;;0.10;0.10;;;;;;;10.78;100.00;98675.72;5092014;28;20024;-56
2023/10/21 06:03:11;;;;;;;0.20;0.20;;;;;;;10.80;100.00;98673.97;5092581;28;20387;-57
2023/10/21 06:05:36;;;;;;;0.20;0.20;;;;;;;10.86;100.00;98678.25;5092686;28;20024;-56
2023/10/21 06:08:02;;;;;;;0.20;0.20;;;;;;;10.85;100.00;98684.25;5092155;28;20070;-57
2023/10/21 06:10:28;;;;;;;0.20;0.20;;;;;;;10.90;100.00;98685.06;5092441;28;20070;-57
2023/10/21 06:12:53;;;;;;;0.20;0.20;;;;;;;10.93;100.00;98694.50;5092631;28;20406;-57
2023/10/21 06:15:19;;;;;;;0.20;0.20;;;;;;;10.97;100.00;98693.63;5091699;28;20502;-56
2023/10/21 06:17:45;;;;;;;0.20;0.20;;;;;;;10.98;100.00;98701.34;5092578;28;20042;-57
2023/10/21 06:20:11;;;;;;;0.20;0.20;;;;;;;11.03;100.00;98706.47;5092143;28;20107;-57
2023/10/21 06:22:37;;;;;;;0.20;0.20;;;;;;;11.09;100.00;98711.59;5092015;28;20371;-57
2023/10/21 06:25:02;;;;;;;0.20;0.20;;;;;;;11.11;100.00;98714.16;5092655;28;20020;-57
2023/10/21 06:27:27;;;;;;;0.10;0.10;;;;;;;11.15;100.00;98719.25;5092299;28;20499;-57
2023/10/21 06:29:53;;;;;;;0.20;0.20;;;;;;;11.20;100.00;98725.22;5091944;28;20044;-56
2023/10/21 06:32:18;;;;;;;0.20;0.20;;;;;;;11.23;100.00;98724.34;5092227;28;20020;-56
2023/10/21 06:34:43;;;;;;;0.20;0.20;;;;;;;11.26;100.00;98728.63;5092409;28;20027;-57
2023/10/21 06:37:09;;;;;;;0.10;0.10;;;;;;;11.31;100.00;98737.19;5091975;28;20425;-56
2023/10/21 06:39:35;;;;;;;0.20;0.20;;;;;;;11.33;100.00;98733.75;5092551;28;20032;-56
2023/10/21 06:42:00;;;;;;;0.20;0.20;;;;;;;11.36;100.00;98751.78;5092519;28;20032;-57
2023/10/21 06:44:25;;;;;;;0.20;0.20;;;;;;;11.41;100.00;98753.47;5091371;28;20032;-56
2023/10/21 06:46:51;;;;;;;0.20;0.20;;;;;;;11.46;100.00;98762.88;5092429;28;20035;-57
2023/10/21 06:49:16;;;;;;;0.20;0.20;;;;;;;11.51;100.00;98755.09;5094511;28;20495;-57
2023/10/21 06:51:42;;;;;;;0.20;0.20;;;;;;;11.56;100.00;98768.00;5095918;28;20028;-57
2023/10/21 06:54:09;;;;;;;0.13;0.13;;;;;;;11.59;100.00;98767.94;5095956;28;20017;-56
2023/10/21 06:56:35;;;;;;;0.20;0.20;;;;;;;11.62;100.00;98767.91;5094965;28;20045;-57
2023/10/21 06:59:01;;;;;;;0.20;0.20;;;;;;;11.65;100.00;98778.22;5095989;28;20024;-57
2023/10/21 07:01:26;;;;;;;0.20;0.20;;;;;;;11.70;100.00;98781.63;5095555;28;20034;-57
2023/10/21 07:03:53;;;;;;;0.10;0.10;;;;;;;11.72;100.00;98785.03;5094977;28;20020;-57
2023/10/21 07:06:18;;;;;;;0.20;0.20;;;;;;;11.74;100.00;98788.47;5095439;28;20108;-57
2023/10/21 07:08:43;;;;;;;0.20;0.20;;;;;;;11.78;100.00;98792.72;5095839;28;20475;-57
2023/10/21 07:11:09;;;;;;;0.10;0.10;;;;;;;11.79;100.00;98806.50;5094992;28;20053;-56
2023/10/21 07:13:34;;;;;;;0.20;0.20;;;;;;;11.81;100.00;98805.63;5095364;28;20032;-56
2023/10/21 07:16:12;;;;;;;0.20;0.20;;;;;;;11.84;100.00;98809.91;5095542;28;20476;-56
2023/10/21 07:18:37;;;;;;;0.20;0.20;;;;;;;11.82;100.00;98811.63;5094982;28;20031;-56
2023/10/21 07:21:04;;;;;;;0.20;0.20;;;;;;;11.84;100.00;98820.22;5095521;28;20024;-57
2023/10/21 07:23:30;;;;;;;0.20;0.20;;;;;;;11.84;100.00;98830.56;5095413;28;20102;-57
2023/10/21 07:25:55;;;;;;;0.20;0.20;;;;;;;11.84;100.00;98835.72;5094830;28;20266;-56
2023/10/21 07:28:21;;;;;;;0.20;0.20;;;;;;;11.82;100.00;98843.44;5095055;28;20028;-57
2023/10/21 07:30:46;;;;;;;0.20;0.20;;;;;;;11.83;100.00;98849.47;5095274;28;20425;-56
2023/10/21 07:33:11;;;;;;;0.10;0.10;;;;;;;11.75;100.00;98867.59;5094182;28;20025;-57
2023/10/21 07:35:38;;;;;;;0.20;0.20;;;;;;;11.65;100.00;98864.22;5095301;28;20028;-57
2023/10/21 07:38:03;;;;;;;0.13;0.13;;;;;;;11.60;100.00;98889.19;5095209;28;20016;-56
2023/10/21 07:40:29;;;;;;;0.20;0.20;;;;;;;11.52;100.00;98890.97;5093771;28;20048;-56
2023/10/21 07:42:55;;;;;;;0.20;0.20;;;;;;;11.50;100.00;98910.75;5095127;28;20535;-56
2023/10/21 07:45:21;;;;;;;0.10;0.10;;;;;;;11.48;100.00;98910.75;5094944;28;20099;-56
2023/10/21 07:47:47;;;;;;;0.20;0.20;;;;;;;11.45;100.00;98920.25;5094122;28;20034;-56
2023/10/21 07:50:13;;;;;;;0.20;0.20;;;;;;;11.45;100.00;98923.69;5094772;28;20081;-57
2023/10/21 07:52:39;;;;;;;0.20;0.20;;;;;;;11.46;100.00;98933.13;5094287;28;20032;-57
2023/10/21 07:55:05;;;;;;;0.20;0.20;;;;;;;11.49;100.00;98938.28;5094914;28;20024;-57
2023/10/21 07:57:33;;;;;;;0.20;0.20;;;;;;;11.53;100.00;98945.13;5094541;28;20035;-57
2023/10/21 07:59:59;;;;;;;0.20;0.20;;;;;;;11.55;100.00;98952.03;5093977;28;20028;-56
2023/10/21 08:02:25;;;;;;;0.13;0.13;;;;;;;11.58;100.00;98952.00;5094579;28;20103;-56
2023/10/21 08:04:50;;;;;;;0.20;0.20;;;;;;;11.53;100.00;98950.31;5094570;28;20048;-57
2023/10/21 08:07:16;;;;;;;0.13;0.13;;;;;;;11.51;100.00;98970.06;5093650;28;20073;-57
2023/10/21 08:09:41;;;;;;;0.20;0.20;;;;;;;11.54;100.00;98976.94;5094678;28;20016;-57
2023/10/21 08:12:08;;;;;;;0.20;0.20;;;;;;;11.59;100.00;98962.28;5094531;28;20035;-57
2023/10/21 08:14:36;;;;;;;0.20;0.20;;;;;;;11.61;100.00;98990.69;5093343;28;20024;-57
2023/10/21 08:17:04;;;;;;;0.20;0.20;;;;;;;11.70;100.00;98988.06;5094563;28;20035;-57
2023/10/21 08:19:31;;;;;;;0.20;0.20;;;;;;;11.73;100.00;98982.88;5094184;28;20151;-57
2023/10/21 08:21:57;;;;;;;0.20;0.20;;;;;;;11.79;100.00;98993.19;5093696;28;20102;-57
2023/10/21 08:24:22;;;;;;;0.20;0.20;;;;;;;11.88;100.00;98978.50;5094166;28;20020;-57
2023/10/21 08:26:48;;;;;;;0.20;0.20;;;;;;;11.94;100.00;98988.78;5094374;28;20020;-57
2023/10/21 08:29:13;;;;;;;0.20;0.20;;;;;;;12.06;100.00;98988.75;5093097;28;20074;-57
2023/10/21 08:31:39;;;;;;;0.20;0.20;;;;;;;12.21;100.00;98994.69;5094097;28;20100;-57
2023/10/21 08:34:09;;;;;;;0.20;0.20;;;;;;;12.29;100.00;98995.47;5094169;28;20085;-56
2023/10/21 08:36:35;;;;;;;0.20;0.20;;;;;;;12.46;100.00;98996.22;5093109;28;20024;-56
2023/10/21 08:39:00;;;;;;;0.20;0.20;;;;;;;12.52;100.00;98996.19;5094075;28;20038;-56
2023/10/21 08:41:33;;;;;;;0.20;0.20;;;;;;;12.58;100.00;98995.25;5093418;28;20126;-56
2023/10/21 08:43:59;;;;;;;0.20;0.20;;;;;;;12.63;100.00;98993.47;5093044;28;20069;-56
2023/10/21 08:46:25;;;;;;;0.20;0.20;;;;;;;12.64;100.00;99015.88;5093581;28;20024;-57
2023/10/21 08:48:52;;;;;;;0.20;0.20;;;;;;;12.64;100.00;99009.84;5093411;28;20114;-56
2023/10/21 08:51:20;;;;;;;0.20;0.20;;;;;;;12.63;100.00;99018.50;5093775;28;20043;-57
2023/10/21 08:53:47;;;;;;;0.10;0.10;;;;;;;12.62;100.00;99021.94;5093691;28;20456;-57
2023/10/21 08:56:14;;;;;;;0.20;0.20;;;;;;;12.60;100.00;99029.72;5092754;28;20084;-57
2023/10/21 08:58:39;;;;;;;0.10;0.10;;;;;;;12.60;100.00;99026.25;5093543;28;20020;-57
2023/10/21 09:01:05;;;;;;;0.20;0.20;;;;;;;12.59;100.00;99040.03;5093677;28;20383;-57
2023/10/21 09:03:32;;;;;;;0.20;0.20;;;;;;;12.58;100.00;99035.75;5092691;28;20074;-57
2023/10/21 09:06:05;;;;;;;0.20;0.20;;;;;;;12.69;100.00;99046.84;5093777;28;20024;-57
2023/10/21 09:08:31;;;;;;;0.20;0.20;;;;;;;12.81;100.00;99043.31;5093200;28;20035;-57
2023/10/21 09:11:06;;;;;;;0.20;0.20;;;;;;;12.96;100.00;99052.66;5092249;28;20024;-57
2023/10/21 09:13:31;;;;;;;0.10;0.10;;;;;;;13.09;100.00;99048.22;5093124;28;20375;-57
2023/10/21 09:15:57;;;;;;;0.10;0.10;;;;;;;13.16;100.00;99070.59;5093265;28;20467;-57
2023/10/21 09:18:23;;;;;;;0.10;0.10;;;;;;;13.34;100.00;99060.03;5092459;28;20023;-56
2023/10/21 09:20:51;;;;;;;0.20;0.20;;;;;;;13.49;100.00;99055.59;5093258;28;20050;-57
2023/10/21 09:23:17;;;;;;;0.10;0.10;;;;;;;13.73;100.00;99058.78;5092964;28;20032;-56
2023/10/21 09:25:50;;;;;;;0.10;0.10;;;;;;;14.01;100.00;99067.06;5092373;28;20028;-57
2023/10/21 09:28:22;;;;;;;0.10;0.10;;;;;;;14.06;100.00;99061.81;5093030;28;20040;-57
2023/10/21 09:30:58;;;;;;;0.13;0.13;;;;;;;13.97;100.00;99068.00;5093216;28;20054;-56
2023/10/21 09:33:25;;;;;;;0.20;0.20;;;;;;;13.89;100.00;99067.22;5092162;28;20020;-57
2023/10/21 09:36:01;;;;;;;0.20;0.20;;;;;;;14.11;100.00;99068.66;5093022;28;20051;-57
2023/10/21 09:38:27;;;;;;;0.10;0.10;;;;;;;14.22;100.00;99070.25;5092184;28;20024;-56
2023/10/21 09:40:53;;;;;;;0.10;0.10;;;;;;;14.12;100.00;99075.53;5092775;28;20425;-56
2023/10/21 09:43:20;;;;;;;0.10;0.10;;;;;;;14.21;100.00;99081.50;5092824;28;20048;-57
2023/10/21 09:45:48;;;;;;;0.10;0.10;;;;;;;14.25;100.00;99076.22;5092269;28;20027;-56
2023/10/21 09:48:14;;;;;;;0.10;0.10;;;;;;;14.14;100.00;99084.16;5092613;28;20032;-57
2023/10/21 09:50:50;;;;;;;0.10;0.10;;;;;;;14.35;100.00;99092.53;5092917;28;20081;-57
2023/10/21 09:53:16;;;;;;;0.10;0.10;;;;;;;14.27;100.00;99092.63;5092158;28;20031;-56
2023/10/21 09:55:41;;;;;;;0.10;0.10;;;;;;;14.35;100.00;99108.06;5093057;28;20028;-56
2023/10/21 09:58:12;;;;;;;0.10;0.10;;;;;;;14.23;100.00;99111.69;5092923;28;20016;-56
2023/10/21 10:00:38;;;;;;;0.10;0.10;;;;;;;14.04;100.00;99117.97;5092054;28;20073;-56
2023/10/21 10:03:05;;;;;;;0.20;0.20;;;;;;;13.94;100.00;99118.09;5092797;28;20059;-56
2023/10/21 10:05:30;;;;;;;0.10;0.10;;;;;;;14.09;100.00;99111.00;5092640;28;20055;-56
2023/10/21 10:07:55;;;;;;;0.10;0.10;;;;;;;14.31;100.00;99116.78;5092250;28;20097;-57
2023/10/21 10:10:23;;;;;;;0.10;0.10;;;;;;;14.31;100.00;99121.94;5092663;28;20474;-56
2023/10/21 10:12:54;;;;;;;0.10;0.10;;;;;;;14.44;100.00;99107.94;5092741;28;20506;-57
2023/10/21 10:15:41;;;;;;;0.10;0.10;;;;;;;14.61;100.00;99119.81;5091661;28;20499;-56
2023/10/21 10:18:10;;;;;;;0.10;0.10;;;;;;;14.87;100.00;99126.34;5092980;28;20028;-57
2023/10/21 10:20:48;;;;;;;0.10;0.10;;;;;;;14.78;100.00;99127.34;5091983;28;20028;-57
2023/10/21 10:23:13;;;;;;;0.10;0.10;;;;;;;14.76;100.00;99134.31;5093916;28;20024;-57
2023/10/21 10:25:42;;;;;;;0.10;0.10;;;;;;;14.68;100.00;99131.84;5096563;28;20082;-57
2023/10/21 10:28:09;;;;;;;0.10;0.10;;;;;;;14.80;100.00;99141.16;5095622;28;20020;-57
2023/10/21 10:30:37;;;;;;;0.10;0.10;;;;;;;14.82;100.00;99144.56;5096474;28;20541;-57
2023/10/21 10:33:08;;;;;;;0.10;0.10;;;;;;;14.88;99.00;99143.63;5096534;28;20066;-56
2023/10/21 10:35:43;;;;;;;0.10;0.10;;;;;;;15.28;98.56;99148.19;5095342;28;20034;-57
2023/10/21 10:38:32;;;;;;;0.10;0.10;;;;;;;15.34;94.28;99148.09;5096406;28;20023;-56
2023/10/21 10:40:57;;;;;;;0.10;0.10;;;;;;;15.56;93.53;99142.50;5096056;28;20058;-57
2023/10/21 10:43:22;;;;;;;0.10;0.10;;;;;;;15.78;93.04;99154.19;5095268;28;20111;-56
2023/10/21 10:45:49;;;;;;;0.10;0.10;;;;;;;15.88;87.77;99154.03;5096400;28;20085;-57
2023/10/21 10:48:16;;;;;;;0.10;0.10;;;;;;;15.89;90.92;99164.41;5095926;28;20033;-57
2023/10/21 10:50:41;;;;;;;0.10;0.10;;;;;;;15.73;90.41;99158.63;5095350;28;20032;-56
2023/10/21 10:53:17;;;;;;;0.10;0.10;;;;;;;15.40;91.68;99168.75;5095982;28;20077;-57
2023/10/21 10:55:47;;;;;;;0.10;0.10;;;;;;;15.26;92.30;99160.31;5095290;28;20023;-57
2023/10/21 10:58:13;;;;;;;0.10;0.10;;;;;;;15.45;94.61;99166.06;5095439;28;20237;-57
2023/10/21 11:00:42;;;;;;;0.10;0.10;;;;;;;15.59;90.14;99158.03;5095772;28;20489;-57
2023/10/21 11:03:08;;;;;;;0.10;0.10;;;;;;;15.67;88.33;99171.72;5095307;28;20023;-56
2023/10/21 11:05:37;;;;;;;0.10;0.10;;;;;;;15.50;89.14;99165.97;5095363;28;20020;-57
2023/10/21 11:08:04;;;;;;;0.10;0.10;;;;;;;15.37;89.46;99166.19;5095728;28;20027;-57
2023/10/21 11:10:30;;;;;;;0.10;0.10;;;;;;;15.29;87.88;99175.84;5094531;28;20502;-57
2023/10/21 11:12:55;;;;;;;0.10;0.10;;;;;;;15.56;88.98;99168.47;5095773;28;20016;-57
2023/10/21 11:15:22;;;;;;;0.10;0.10;;;;;;;15.55;85.65;99177.16;5095385;28;20109;-57
2023/10/21 11:17:48;;;;;;;0.10;0.10;;;;;;;15.48;83.87;99179.84;5094751;28;20020;-57
2023/10/21 11:20:15;;;;;;;0.10;0.10;;;;;;;15.19;83.63;99179.47;5095125;28;20030;-57
2023/10/21 11:22:43;;;;;;;0.10;0.10;;;;;;;14.93;85.76;99193.72;5095453;28;20073;-56